sensor_id;sensor_type;location;lat;lon;timestamp;temperature;humidity
12166;DHT22;6146;48.128;11.476;2023-05-19T00:01:12;9.90;99.90
12166;DHT22;6146;48.128;11.476;2023-05-19T00:03:48;10.00;99.90
12166;DHT22;6146;48.128;11.476;2023-05-19T00:06:21;9.90;99.90
12166;DHT22;6146;48.128;11.476;2023-05-19T00:08:48;9.90;99.90
12166;DHT22;6146;48.128;11.476;2023-05-19T00:11:14;9.90;99.90
12166;DHT22;6146;48.128;11.476;2023-05-19T00:13:40;9.90;99.90
12166;DHT22;6146;48.128;11.476;2023-05-19T00:16:06;9.90;99.90
12166;DHT22;6146;48.128;11.476;2023-05-19T00:18:32;9.90;99.90
12166;DHT22;6146;48.128;11.476;2023-05-19T00:20:57;9.90;99.90
12166;DHT22;6146;48.128;11.476;2023-05-19T00:23:23;10.00;99.90
12166;DHT22;6146;48.128;11.476;2023-05-19T00:25:48;9.90;99.90
12166;DHT22;6146;48.128;11.476;2023-05-19T00:28:14;9.90;99.90
12166;DHT22;6146;48.128;11.476;2023-05-19T00:30:40;9.80;99.90
12166;DHT22;6146;48.128;11.476;2023-05-19T00:33:05;9.90;99.90
12166;DHT22;6146;48.128;11.476;2023-05-19T00:35:31;9.90;99.90
12166;DHT22;6146;48.128;11.476;2023-05-19T00:37:57;9.90;99.90
12166;DHT22;6146;48.128;11.476;2023-05-19T00:40:23;9.90;99.90
12166;DHT22;6146;48.128;11.476;2023-05-19T00:42:48;9.90;99.90
12166;DHT22;6146;48.128;11.476;2023-05-19T00:45:14;9.90;99.90
12166;DHT22;6146;48.128;11.476;2023-05-19T00:47:39;9.90;99.90
12166;DHT22;6146;48.128;11.476;2023-05-19T00:50:05;9.90;99.90
12166;DHT22;6146;48.128;11.476;2023-05-19T00:52:31;9.80;99.90
12166;DHT22;6146;48.128;11.476;2023-05-19T00:54:57;9.90;99.90
12166;DHT22;6146;48.128;11.476;2023-05-19T00:57:22;9.90;99.90
12166;DHT22;6146;48.128;11.476;2023-05-19T00:59:48;9.90;99.90
12166;DHT22;6146;48.128;11.476;2023-05-19T01:02:13;9.80;99.90
12166;DHT22;6146;48.128;11.476;2023-05-19T01:04:39;9.80;99.90
12166;DHT22;6146;48.128;11.476;2023-05-19T01:07:06;9.90;99.90
12166;DHT22;6146;48.128;11.476;2023-05-19T01:09:32;9.80;99.90
12166;DHT22;6146;48.128;11.476;2023-05-19T01:11:59;9.80;99.90
12166;DHT22;6146;48.128;11.476;2023-05-19T01:14:25;9.80;99.90
12166;DHT22;6146;48.128;11.476;2023-05-19T01:19:46;9.80;99.90
12166;DHT22;6146;48.128;11.476;2023-05-19T01:25:33;9.80;99.90
12166;DHT22;6146;48.128;11.476;2023-05-19T01:30:52;9.80;99.90
12166;DHT22;6146;48.128;11.476;2023-05-19T01:33:19;10.00;99.90
12166;DHT22;6146;48.128;11.476;2023-05-19T01:35:46;9.90;99.90
12166;DHT22;6146;48.128;11.476;2023-05-19T01:38:14;9.80;99.90
12166;DHT22;6146;48.128;11.476;2023-05-19T01:40:41;9.90;99.90
12166;DHT22;6146;48.128;11.476;2023-05-19T01:43:15;9.80;99.90
12166;DHT22;6146;48.128;11.476;2023-05-19T01:45:41;9.90;99.90
12166;DHT22;6146;48.128;11.476;2023-05-19T01:48:07;9.80;99.90
12166;DHT22;6146;48.128;11.476;2023-05-19T01:50:33;9.80;99.90
12166;DHT22;6146;48.128;11.476;2023-05-19T01:53:00;9.80;99.90
12166;DHT22;6146;48.128;11.476;2023-05-19T01:55:26;9.70;99.90
12166;DHT22;6146;48.128;11.476;2023-05-19T02:05:54;9.70;99.90
12166;DHT22;6146;48.128;11.476;2023-05-19T02:11:38;9.60;99.90
12166;DHT22;6146;48.128;11.476;2023-05-19T02:14:14;9.50;99.90
12166;DHT22;6146;48.128;11.476;2023-05-19T02:16:44;9.50;99.90
12166;DHT22;6146;48.128;11.476;2023-05-19T02:19:26;9.50;99.90
12166;DHT22;6146;48.128;11.476;2023-05-19T02:21:51;9.50;99.90
12166;DHT22;6146;48.128;11.476;2023-05-19T02:24:18;9.60;99.90
12166;DHT22;6146;48.128;11.476;2023-05-19T02:26:44;9.60;99.90
12166;DHT22;6146;48.128;11.476;2023-05-19T02:29:10;9.50;99.90
12166;DHT22;6146;48.128;11.476;2023-05-19T02:31:36;9.50;99.90
12166;DHT22;6146;48.128;11.476;2023-05-19T02:34:01;9.50;99.90
12166;DHT22;6146;48.128;11.476;2023-05-19T02:36:27;9.40;99.90
12166;DHT22;6146;48.128;11.476;2023-05-19T02:38:53;9.40;99.90
12166;DHT22;6146;48.128;11.476;2023-05-19T02:41:18;9.40;99.90
12166;DHT22;6146;48.128;11.476;2023-05-19T02:43:44;9.30;99.90
12166;DHT22;6146;48.128;11.476;2023-05-19T02:46:09;9.30;99.90
12166;DHT22;6146;48.128;11.476;2023-05-19T02:48:35;9.30;99.90
12166;DHT22;6146;48.128;11.476;2023-05-19T02:51:01;9.40;99.90
12166;DHT22;6146;48.128;11.476;2023-05-19T02:53:26;9.30;99.90
12166;DHT22;6146;48.128;11.476;2023-05-19T02:55:52;9.30;99.90
12166;DHT22;6146;48.128;11.476;2023-05-19T02:58:18;9.30;99.90
12166;DHT22;6146;48.128;11.476;2023-05-19T03:00:45;9.30;99.90
12166;DHT22;6146;48.128;11.476;2023-05-19T03:03:10;9.40;99.90
12166;DHT22;6146;48.128;11.476;2023-05-19T03:05:36;9.30;99.90
12166;DHT22;6146;48.128;11.476;2023-05-19T03:08:01;9.40;99.90
12166;DHT22;6146;48.128;11.476;2023-05-19T03:10:27;9.40;99.90
12166;DHT22;6146;48.128;11.476;2023-05-19T03:12:53;9.40;99.90
12166;DHT22;6146;48.128;11.476;2023-05-19T03:15:18;9.40;99.90
12166;DHT22;6146;48.128;11.476;2023-05-19T03:17:47;9.40;99.90
12166;DHT22;6146;48.128;11.476;2023-05-19T03:20:12;9.30;99.90
12166;DHT22;6146;48.128;11.476;2023-05-19T03:22:40;9.30;99.90
12166;DHT22;6146;48.128;11.476;2023-05-19T03:25:06;9.30;99.90
12166;DHT22;6146;48.128;11.476;2023-05-19T03:27:31;9.30;99.90
12166;DHT22;6146;48.128;11.476;2023-05-19T03:29:57;9.20;99.90
12166;DHT22;6146;48.128;11.476;2023-05-19T03:32:22;9.20;99.90
12166;DHT22;6146;48.128;11.476;2023-05-19T03:34:48;9.30;99.90
12166;DHT22;6146;48.128;11.476;2023-05-19T03:37:13;9.30;99.90
12166;DHT22;6146;48.128;11.476;2023-05-19T03:39:39;9.30;99.90
12166;DHT22;6146;48.128;11.476;2023-05-19T03:42:05;9.30;99.90
12166;DHT22;6146;48.128;11.476;2023-05-19T03:44:30;9.30;99.90
12166;DHT22;6146;48.128;11.476;2023-05-19T03:46:56;9.30;99.90
12166;DHT22;6146;48.128;11.476;2023-05-19T03:49:21;9.30;99.90
12166;DHT22;6146;48.128;11.476;2023-05-19T03:51:47;9.30;99.90
12166;DHT22;6146;48.128;11.476;2023-05-19T03:54:12;9.20;99.90
12166;DHT22;6146;48.128;11.476;2023-05-19T03:56:39;9.20;99.90
12166;DHT22;6146;48.128;11.476;2023-05-19T03:59:05;9.30;99.90
12166;DHT22;6146;48.128;11.476;2023-05-19T04:01:31;9.40;99.90
12166;DHT22;6146;48.128;11.476;2023-05-19T04:03:57;9.40;99.90
12166;DHT22;6146;48.128;11.476;2023-05-19T04:06:23;9.40;99.90
12166;DHT22;6146;48.128;11.476;2023-05-19T04:08:48;9.40;99.90
12166;DHT22;6146;48.128;11.476;2023-05-19T04:11:14;9.40;99.90
12166;DHT22;6146;48.128;11.476;2023-05-19T04:13:40;9.40;99.90
12166;DHT22;6146;48.128;11.476;2023-05-19T04:16:05;9.40;99.90
12166;DHT22;6146;48.128;11.476;2023-05-19T04:18:31;9.40;99.90
12166;DHT22;6146;48.128;11.476;2023-05-19T04:20:57;9.50;99.90
12166;DHT22;6146;48.128;11.476;2023-05-19T04:23:22;9.50;99.90
12166;DHT22;6146;48.128;11.476;2023-05-19T04:25:48;9.50;99.90
12166;DHT22;6146;48.128;11.476;2023-05-19T04:28:14;9.50;99.90
12166;DHT22;6146;48.128;11.476;2023-05-19T04:30:40;9.50;99.90
12166;DHT22;6146;48.128;11.476;2023-05-19T04:33:07;9.60;99.90
12166;DHT22;6146;48.128;11.476;2023-05-19T04:35:33;9.70;99.90
12166;DHT22;6146;48.128;11.476;2023-05-19T04:37:59;9.70;99.90
12166;DHT22;6146;48.128;11.476;2023-05-19T04:40:26;9.70;99.90
12166;DHT22;6146;48.128;11.476;2023-05-19T04:42:51;9.70;99.90
12166;DHT22;6146;48.128;11.476;2023-05-19T04:45:18;9.70;99.90
12166;DHT22;6146;48.128;11.476;2023-05-19T04:47:44;9.80;99.90
12166;DHT22;6146;48.128;11.476;2023-05-19T04:50:11;9.70;99.90
12166;DHT22;6146;48.128;11.476;2023-05-19T04:52:37;9.70;99.90
12166;DHT22;6146;48.128;11.476;2023-05-19T04:55:03;9.80;99.90
12166;DHT22;6146;48.128;11.476;2023-05-19T04:57:28;9.90;99.90
12166;DHT22;6146;48.128;11.476;2023-05-19T04:59:54;10.00;99.90
12166;DHT22;6146;48.128;11.476;2023-05-19T05:02:24;10.00;99.90
12166;DHT22;6146;48.128;11.476;2023-05-19T05:04:51;10.10;99.90
12166;DHT22;6146;48.128;11.476;2023-05-19T05:07:19;10.20;99.90
12166;DHT22;6146;48.128;11.476;2023-05-19T05:09:46;10.40;99.90
12166;DHT22;6146;48.128;11.476;2023-05-19T05:12:13;10.60;99.90
12166;DHT22;6146;48.128;11.476;2023-05-19T05:14:39;11.00;99.90
12166;DHT22;6146;48.128;11.476;2023-05-19T05:17:06;11.50;99.90
12166;DHT22;6146;48.128;11.476;2023-05-19T05:19:32;11.70;99.90
12166;DHT22;6146;48.128;11.476;2023-05-19T05:21:58;11.60;99.90
12166;DHT22;6146;48.128;11.476;2023-05-19T05:24:24;11.50;99.90
12166;DHT22;6146;48.128;11.476;2023-05-19T05:26:50;11.50;99.90
12166;DHT22;6146;48.128;11.476;2023-05-19T05:29:16;11.50;99.90
12166;DHT22;6146;48.128;11.476;2023-05-19T05:31:41;11.70;99.90
12166;DHT22;6146;48.128;11.476;2023-05-19T05:34:07;11.70;99.90
12166;DHT22;6146;48.128;11.476;2023-05-19T05:36:32;11.80;99.90
12166;DHT22;6146;48.128;11.476;2023-05-19T05:38:59;11.60;99.90
12166;DHT22;6146;48.128;11.476;2023-05-19T05:41:27;11.60;99.90
12166;DHT22;6146;48.128;11.476;2023-05-19T05:44:02;11.80;99.90
12166;DHT22;6146;48.128;11.476;2023-05-19T05:46:27;12.10;99.90
12166;DHT22;6146;48.128;11.476;2023-05-19T05:48:53;11.90;99.90
12166;DHT22;6146;48.128;11.476;2023-05-19T05:51:22;11.90;99.90
12166;DHT22;6146;48.128;11.476;2023-05-19T05:53:52;11.80;99.90
12166;DHT22;6146;48.128;11.476;2023-05-19T05:56:18;12.10;99.90
12166;DHT22;6146;48.128;11.476;2023-05-19T05:58:45;12.40;99.90
12166;DHT22;6146;48.128;11.476;2023-05-19T06:01:10;12.90;99.90
12166;DHT22;6146;48.128;11.476;2023-05-19T06:03:40;13.80;99.90
12166;DHT22;6146;48.128;11.476;2023-05-19T06:06:09;15.30;99.90
12166;DHT22;6146;48.128;11.476;2023-05-19T06:08:34;16.70;99.90
12166;DHT22;6146;48.128;11.476;2023-05-19T06:11:00;17.80;99.90
12166;DHT22;6146;48.128;11.476;2023-05-19T06:13:25;18.50;99.90
12166;DHT22;6146;48.128;11.476;2023-05-19T06:15:51;19.10;99.90
12166;DHT22;6146;48.128;11.476;2023-05-19T06:18:17;19.80;99.90
12166;DHT22;6146;48.128;11.476;2023-05-19T06:20:43;19.40;99.80
12166;DHT22;6146;48.128;11.476;2023-05-19T06:23:08;18.80;99.90
12166;DHT22;6146;48.128;11.476;2023-05-19T06:25:34;17.60;99.90
12166;DHT22;6146;48.128;11.476;2023-05-19T06:28:00;16.90;99.90
12166;DHT22;6146;48.128;11.476;2023-05-19T06:30:25;17.10;99.90
12166;DHT22;6146;48.128;11.476;2023-05-19T06:32:51;18.40;99.90
12166;DHT22;6146;48.128;11.476;2023-05-19T06:35:16;19.60;99.90
12166;DHT22;6146;48.128;11.476;2023-05-19T06:37:42;20.60;97.00
12166;DHT22;6146;48.128;11.476;2023-05-19T06:40:08;20.00;96.60
12166;DHT22;6146;48.128;11.476;2023-05-19T06:42:34;19.70;96.80
12166;DHT22;6146;48.128;11.476;2023-05-19T06:45:00;18.70;97.80
12166;DHT22;6146;48.128;11.476;2023-05-19T06:47:25;18.30;99.20
12166;DHT22;6146;48.128;11.476;2023-05-19T06:49:51;18.90;99.00
12166;DHT22;6146;48.128;11.476;2023-05-19T06:52:20;18.90;97.80
12166;DHT22;6146;48.128;11.476;2023-05-19T06:54:46;19.20;96.60
12166;DHT22;6146;48.128;11.476;2023-05-19T06:57:13;19.00;97.50
12166;DHT22;6146;48.128;11.476;2023-05-19T06:59:38;19.10;96.70
12166;DHT22;6146;48.128;11.476;2023-05-19T07:02:06;19.30;96.70
12166;DHT22;6146;48.128;11.476;2023-05-19T07:04:32;19.10;96.60
12166;DHT22;6146;48.128;11.476;2023-05-19T07:06:57;19.00;96.70
12166;DHT22;6146;48.128;11.476;2023-05-19T07:09:23;18.30;98.10
12166;DHT22;6146;48.128;11.476;2023-05-19T07:11:49;17.70;99.10
12166;DHT22;6146;48.128;11.476;2023-05-19T07:14:14;18.00;99.60
12166;DHT22;6146;48.128;11.476;2023-05-19T07:16:40;18.40;98.60
12166;DHT22;6146;48.128;11.476;2023-05-19T07:19:06;19.20;97.10
12166;DHT22;6146;48.128;11.476;2023-05-19T07:21:31;19.80;95.30
12166;DHT22;6146;48.128;11.476;2023-05-19T07:23:57;19.60;95.20
12166;DHT22;6146;48.128;11.476;2023-05-19T07:26:22;18.80;96.90
12166;DHT22;6146;48.128;11.476;2023-05-19T07:28:48;18.50;97.60
12166;DHT22;6146;48.128;11.476;2023-05-19T07:31:13;18.20;97.80
12166;DHT22;6146;48.128;11.476;2023-05-19T07:33:39;18.00;97.80
12166;DHT22;6146;48.128;11.476;2023-05-19T07:36:05;18.10;97.90
12166;DHT22;6146;48.128;11.476;2023-05-19T07:38:31;17.80;98.40
12166;DHT22;6146;48.128;11.476;2023-05-19T07:40:59;18.00;98.90
12166;DHT22;6146;48.128;11.476;2023-05-19T07:43:26;18.10;98.30
12166;DHT22;6146;48.128;11.476;2023-05-19T07:45:51;17.40;98.30
12166;DHT22;6146;48.128;11.476;2023-05-19T07:48:18;16.70;99.90
12166;DHT22;6146;48.128;11.476;2023-05-19T07:50:47;16.10;99.90
12166;DHT22;6146;48.128;11.476;2023-05-19T07:53:13;15.60;99.90
12166;DHT22;6146;48.128;11.476;2023-05-19T07:55:38;15.40;99.90
12166;DHT22;6146;48.128;11.476;2023-05-19T07:58:04;15.40;99.90
12166;DHT22;6146;48.128;11.476;2023-05-19T08:00:29;15.20;99.90
12166;DHT22;6146;48.128;11.476;2023-05-19T08:02:55;15.00;99.90
12166;DHT22;6146;48.128;11.476;2023-05-19T08:05:21;15.10;99.90
12166;DHT22;6146;48.128;11.476;2023-05-19T08:07:47;15.40;99.90
12166;DHT22;6146;48.128;11.476;2023-05-19T08:10:13;15.70;99.90
12166;DHT22;6146;48.128;11.476;2023-05-19T08:12:39;15.50;99.90
12166;DHT22;6146;48.128;11.476;2023-05-19T08:15:04;15.40;99.90
12166;DHT22;6146;48.128;11.476;2023-05-19T08:17:30;14.80;99.90
12166;DHT22;6146;48.128;11.476;2023-05-19T08:19:56;14.50;99.90
12166;DHT22;6146;48.128;11.476;2023-05-19T08:22:21;14.40;99.90
12166;DHT22;6146;48.128;11.476;2023-05-19T08:24:47;14.40;99.90
12166;DHT22;6146;48.128;11.476;2023-05-19T08:27:14;14.10;99.90
12166;DHT22;6146;48.128;11.476;2023-05-19T08:29:41;13.90;99.90
12166;DHT22;6146;48.128;11.476;2023-05-19T08:32:08;13.80;99.90
12166;DHT22;6146;48.128;11.476;2023-05-19T08:34:33;13.80;99.90
12166;DHT22;6146;48.128;11.476;2023-05-19T08:36:59;13.80;99.90
12166;DHT22;6146;48.128;11.476;2023-05-19T08:39:25;13.70;99.90
12166;DHT22;6146;48.128;11.476;2023-05-19T08:41:52;13.80;99.90
12166;DHT22;6146;48.128;11.476;2023-05-19T08:44:18;13.60;99.90
12166;DHT22;6146;48.128;11.476;2023-05-19T08:46:44;13.60;99.90
12166;DHT22;6146;48.128;11.476;2023-05-19T08:49:12;13.50;99.90
12166;DHT22;6146;48.128;11.476;2023-05-19T08:51:59;13.50;99.90
12166;DHT22;6146;48.128;11.476;2023-05-19T08:54:32;13.60;99.90
12166;DHT22;6146;48.128;11.476;2023-05-19T08:57:01;13.80;99.90
12166;DHT22;6146;48.128;11.476;2023-05-19T08:59:28;13.70;99.90
12166;DHT22;6146;48.128;11.476;2023-05-19T09:01:54;13.60;99.90
12166;DHT22;6146;48.128;11.476;2023-05-19T09:04:20;13.60;99.90
12166;DHT22;6146;48.128;11.476;2023-05-19T09:06:46;13.50;99.90
12166;DHT22;6146;48.128;11.476;2023-05-19T09:09:12;13.30;99.90
12166;DHT22;6146;48.128;11.476;2023-05-19T09:11:38;13.20;99.90
12166;DHT22;6146;48.128;11.476;2023-05-19T09:14:04;13.20;99.90
12166;DHT22;6146;48.128;11.476;2023-05-19T09:16:29;13.00;99.90
12166;DHT22;6146;48.128;11.476;2023-05-19T09:18:57;12.90;99.90
12166;DHT22;6146;48.128;11.476;2023-05-19T09:21:29;12.80;99.90
12166;DHT22;6146;48.128;11.476;2023-05-19T09:23:56;12.90;99.90
12166;DHT22;6146;48.128;11.476;2023-05-19T09:26:22;12.90;99.90
12166;DHT22;6146;48.128;11.476;2023-05-19T09:28:48;13.10;99.90
12166;DHT22;6146;48.128;11.476;2023-05-19T09:31:13;13.40;99.90
12166;DHT22;6146;48.128;11.476;2023-05-19T09:33:40;13.70;99.90
12166;DHT22;6146;48.128;11.476;2023-05-19T09:36:09;14.00;99.90
12166;DHT22;6146;48.128;11.476;2023-05-19T09:38:37;14.10;99.90
12166;DHT22;6146;48.128;11.476;2023-05-19T09:41:04;14.10;99.90
12166;DHT22;6146;48.128;11.476;2023-05-19T09:43:31;14.20;99.90
12166;DHT22;6146;48.128;11.476;2023-05-19T09:46:05;14.00;99.90
12166;DHT22;6146;48.128;11.476;2023-05-19T09:48:32;13.90;99.90
12166;DHT22;6146;48.128;11.476;2023-05-19T09:50:59;13.90;99.90
12166;DHT22;6146;48.128;11.476;2023-05-19T09:53:25;13.90;99.90
12166;DHT22;6146;48.128;11.476;2023-05-19T09:55:55;13.90;99.90
12166;DHT22;6146;48.128;11.476;2023-05-19T09:58:25;13.70;99.90
12166;DHT22;6146;48.128;11.476;2023-05-19T10:00:51;13.70;99.90
12166;DHT22;6146;48.128;11.476;2023-05-19T10:03:19;13.90;99.90
12166;DHT22;6146;48.128;11.476;2023-05-19T10:05:47;14.10;99.90
12166;DHT22;6146;48.128;11.476;2023-05-19T10:08:13;14.30;99.90
12166;DHT22;6146;48.128;11.476;2023-05-19T10:10:38;14.40;99.90
12166;DHT22;6146;48.128;11.476;2023-05-19T10:13:05;14.10;99.90
12166;DHT22;6146;48.128;11.476;2023-05-19T10:15:31;14.00;99.90
12166;DHT22;6146;48.128;11.476;2023-05-19T10:17:57;14.00;99.90
12166;DHT22;6146;48.128;11.476;2023-05-19T10:20:25;14.20;99.90
12166;DHT22;6146;48.128;11.476;2023-05-19T10:22:51;14.10;99.90
12166;DHT22;6146;48.128;11.476;2023-05-19T10:25:16;14.20;99.90
12166;DHT22;6146;48.128;11.476;2023-05-19T10:27:50;14.00;99.90
12166;DHT22;6146;48.128;11.476;2023-05-19T10:30:32;13.70;99.90
12166;DHT22;6146;48.128;11.476;2023-05-19T10:32:59;13.60;99.90
12166;DHT22;6146;48.128;11.476;2023-05-19T10:44:08;13.90;99.90
12166;DHT22;6146;48.128;11.476;2023-05-19T10:46:34;13.80;99.90
12166;DHT22;6146;48.128;11.476;2023-05-19T10:49:00;13.70;99.90
12166;DHT22;6146;48.128;11.476;2023-05-19T10:51:32;13.60;99.90
12166;DHT22;6146;48.128;11.476;2023-05-19T10:54:00;13.70;99.90
12166;DHT22;6146;48.128;11.476;2023-05-19T10:56:31;13.70;99.90
12166;DHT22;6146;48.128;11.476;2023-05-19T10:59:01;13.80;99.90
12166;DHT22;6146;48.128;11.476;2023-05-19T11:01:34;14.00;99.90
12166;DHT22;6146;48.128;11.476;2023-05-19T11:04:09;14.20;99.90
12166;DHT22;6146;48.128;11.476;2023-05-19T11:06:37;14.40;99.90
12166;DHT22;6146;48.128;11.476;2023-05-19T11:11:47;14.60;99.90
12166;DHT22;6146;48.128;11.476;2023-05-19T11:14:14;14.70;99.90
12166;DHT22;6146;48.128;11.476;2023-05-19T11:16:44;14.70;99.90
12166;DHT22;6146;48.128;11.476;2023-05-19T11:21:53;14.70;99.90
12166;DHT22;6146;48.128;11.476;2023-05-19T11:24:33;14.40;99.90
12166;DHT22;6146;48.128;11.476;2023-05-19T11:29:52;14.50;99.90
12166;DHT22;6146;48.128;11.476;2023-05-19T11:32:19;14.70;99.90
12166;DHT22;6146;48.128;11.476;2023-05-19T11:34:47;15.00;99.90
12166;DHT22;6146;48.128;11.476;2023-05-19T11:37:13;15.20;99.90
12166;DHT22;6146;48.128;11.476;2023-05-19T11:39:39;15.60;99.90
12166;DHT22;6146;48.128;11.476;2023-05-19T11:42:05;15.60;99.90
12166;DHT22;6146;48.128;11.476;2023-05-19T11:44:31;15.10;99.90
12166;DHT22;6146;48.128;11.476;2023-05-19T11:46:58;15.00;99.90
12166;DHT22;6146;48.128;11.476;2023-05-19T11:49:24;15.00;99.90
12166;DHT22;6146;48.128;11.476;2023-05-19T11:51:49;15.00;99.90
12166;DHT22;6146;48.128;11.476;2023-05-19T11:54:15;14.80;99.90
12166;DHT22;6146;48.128;11.476;2023-05-19T11:56:41;14.80;99.90
12166;DHT22;6146;48.128;11.476;2023-05-19T11:59:10;14.80;99.90
12166;DHT22;6146;48.128;11.476;2023-05-19T12:01:36;14.80;99.90
12166;DHT22;6146;48.128;11.476;2023-05-19T12:04:07;14.90;99.90
12166;DHT22;6146;48.128;11.476;2023-05-19T12:06:33;15.00;99.90
12166;DHT22;6146;48.128;11.476;2023-05-19T12:08:58;15.00;99.90
12166;DHT22;6146;48.128;11.476;2023-05-19T12:11:27;14.80;99.90
12166;DHT22;6146;48.128;11.476;2023-05-19T12:13:57;14.70;99.90
12166;DHT22;6146;48.128;11.476;2023-05-19T12:16:31;14.40;99.90
12166;DHT22;6146;48.128;11.476;2023-05-19T12:18:57;14.40;99.90
12166;DHT22;6146;48.128;11.476;2023-05-19T12:21:22;14.50;99.90
12166;DHT22;6146;48.128;11.476;2023-05-19T12:23:48;14.50;99.90
12166;DHT22;6146;48.128;11.476;2023-05-19T12:26:14;14.30;99.90
12166;DHT22;6146;48.128;11.476;2023-05-19T12:28:39;14.30;99.90
12166;DHT22;6146;48.128;11.476;2023-05-19T12:31:05;14.30;99.90
12166;DHT22;6146;48.128;11.476;2023-05-19T12:33:32;14.60;99.90
12166;DHT22;6146;48.128;11.476;2023-05-19T12:35:59;14.90;99.90
12166;DHT22;6146;48.128;11.476;2023-05-19T12:38:24;14.90;99.90
12166;DHT22;6146;48.128;11.476;2023-05-19T12:40:50;14.90;99.90
12166;DHT22;6146;48.128;11.476;2023-05-19T12:43:20;14.80;99.90
12166;DHT22;6146;48.128;11.476;2023-05-19T12:45:46;14.90;99.90
12166;DHT22;6146;48.128;11.476;2023-05-19T12:48:12;15.10;99.90
12166;DHT22;6146;48.128;11.476;2023-05-19T12:50:40;14.90;99.90
12166;DHT22;6146;48.128;11.476;2023-05-19T12:53:15;14.90;99.90
12166;DHT22;6146;48.128;11.476;2023-05-19T12:55:42;14.50;99.90
12166;DHT22;6146;48.128;11.476;2023-05-19T12:58:09;14.30;99.90
12166;DHT22;6146;48.128;11.476;2023-05-19T13:00:40;14.50;99.90
12166;DHT22;6146;48.128;11.476;2023-05-19T13:03:07;14.70;99.90
12166;DHT22;6146;48.128;11.476;2023-05-19T13:05:38;14.70;99.90
12166;DHT22;6146;48.128;11.476;2023-05-19T13:08:11;14.90;99.90
12166;DHT22;6146;48.128;11.476;2023-05-19T13:10:39;15.10;99.90
12166;DHT22;6146;48.128;11.476;2023-05-19T13:13:05;15.30;99.90
12166;DHT22;6146;48.128;11.476;2023-05-19T13:15:32;15.60;99.90
12166;DHT22;6146;48.128;11.476;2023-05-19T13:18:02;15.60;99.90
12166;DHT22;6146;48.128;11.476;2023-05-19T13:20:28;15.80;99.90
12166;DHT22;6146;48.128;11.476;2023-05-19T13:22:54;16.10;99.90
12166;DHT22;6146;48.128;11.476;2023-05-19T13:25:20;16.00;99.90
12166;DHT22;6146;48.128;11.476;2023-05-19T13:27:46;16.10;99.90
12166;DHT22;6146;48.128;11.476;2023-05-19T13:30:12;16.50;99.90
12166;DHT22;6146;48.128;11.476;2023-05-19T13:32:38;17.00;99.90
12166;DHT22;6146;48.128;11.476;2023-05-19T13:35:04;17.40;99.90
12166;DHT22;6146;48.128;11.476;2023-05-19T13:37:30;17.20;99.90
12166;DHT22;6146;48.128;11.476;2023-05-19T13:39:55;17.00;99.90
12166;DHT22;6146;48.128;11.476;2023-05-19T13:42:24;16.60;99.90
12166;DHT22;6146;48.128;11.476;2023-05-19T13:44:53;16.50;99.90
12166;DHT22;6146;48.128;11.476;2023-05-19T13:47:19;16.70;99.90
12166;DHT22;6146;48.128;11.476;2023-05-19T13:49:44;17.00;99.90
12166;DHT22;6146;48.128;11.476;2023-05-19T13:52:10;17.10;99.90
12166;DHT22;6146;48.128;11.476;2023-05-19T13:54:37;17.30;99.90
12166;DHT22;6146;48.128;11.476;2023-05-19T13:57:02;17.20;99.90
12166;DHT22;6146;48.128;11.476;2023-05-19T13:59:28;17.10;99.90
12166;DHT22;6146;48.128;11.476;2023-05-19T14:01:54;17.20;99.90
12166;DHT22;6146;48.128;11.476;2023-05-19T14:04:19;17.20;99.90
12166;DHT22;6146;48.128;11.476;2023-05-19T14:06:45;17.40;99.90
12166;DHT22;6146;48.128;11.476;2023-05-19T14:09:11;17.20;99.90
12166;DHT22;6146;48.128;11.476;2023-05-19T14:11:37;17.20;99.90
12166;DHT22;6146;48.128;11.476;2023-05-19T14:14:02;17.20;99.90
12166;DHT22;6146;48.128;11.476;2023-05-19T14:16:28;17.20;99.90
12166;DHT22;6146;48.128;11.476;2023-05-19T14:18:55;17.00;99.90
12166;DHT22;6146;48.128;11.476;2023-05-19T14:21:21;17.00;99.90
12166;DHT22;6146;48.128;11.476;2023-05-19T14:23:46;16.80;99.90
12166;DHT22;6146;48.128;11.476;2023-05-19T14:26:12;16.50;99.90
12166;DHT22;6146;48.128;11.476;2023-05-19T14:28:37;16.00;99.90
12166;DHT22;6146;48.128;11.476;2023-05-19T14:31:03;15.70;99.90
12166;DHT22;6146;48.128;11.476;2023-05-19T14:33:29;15.80;99.90
12166;DHT22;6146;48.128;11.476;2023-05-19T14:35:54;15.80;99.90
12166;DHT22;6146;48.128;11.476;2023-05-19T14:38:23;15.90;99.90
12166;DHT22;6146;48.128;11.476;2023-05-19T14:40:48;16.20;99.90
12166;DHT22;6146;48.128;11.476;2023-05-19T14:43:14;16.20;99.90
12166;DHT22;6146;48.128;11.476;2023-05-19T14:45:39;16.30;99.90
12166;DHT22;6146;48.128;11.476;2023-05-19T14:48:06;16.40;99.90
12166;DHT22;6146;48.128;11.476;2023-05-19T14:50:32;16.50;99.90
12166;DHT22;6146;48.128;11.476;2023-05-19T14:52:57;16.30;99.90
12166;DHT22;6146;48.128;11.476;2023-05-19T14:55:23;16.20;99.90
12166;DHT22;6146;48.128;11.476;2023-05-19T14:57:49;16.20;99.90
12166;DHT22;6146;48.128;11.476;2023-05-19T15:00:15;16.20;99.90
12166;DHT22;6146;48.128;11.476;2023-05-19T15:02:42;16.10;99.90
12166;DHT22;6146;48.128;11.476;2023-05-19T15:05:08;16.10;99.90
12166;DHT22;6146;48.128;11.476;2023-05-19T15:07:34;16.00;99.90
12166;DHT22;6146;48.128;11.476;2023-05-19T15:10:00;16.00;99.90
12166;DHT22;6146;48.128;11.476;2023-05-19T15:12:26;16.10;99.90
12166;DHT22;6146;48.128;11.476;2023-05-19T15:14:52;16.20;99.90
12166;DHT22;6146;48.128;11.476;2023-05-19T15:17:17;16.00;99.90
12166;DHT22;6146;48.128;11.476;2023-05-19T15:19:43;15.90;99.90
12166;DHT22;6146;48.128;11.476;2023-05-19T15:22:08;15.80;99.90
12166;DHT22;6146;48.128;11.476;2023-05-19T15:24:34;15.60;99.90
12166;DHT22;6146;48.128;11.476;2023-05-19T15:27:00;15.50;99.90
12166;DHT22;6146;48.128;11.476;2023-05-19T15:29:26;15.40;99.90
12166;DHT22;6146;48.128;11.476;2023-05-19T15:31:52;15.60;99.90
12166;DHT22;6146;48.128;11.476;2023-05-19T15:34:20;15.50;99.90
12166;DHT22;6146;48.128;11.476;2023-05-19T15:36:46;15.50;99.90
12166;DHT22;6146;48.128;11.476;2023-05-19T15:39:12;15.70;99.90
12166;DHT22;6146;48.128;11.476;2023-05-19T15:41:38;15.80;99.90
12166;DHT22;6146;48.128;11.476;2023-05-19T15:44:03;16.10;99.90
12166;DHT22;6146;48.128;11.476;2023-05-19T15:46:31;16.40;99.90
12166;DHT22;6146;48.128;11.476;2023-05-19T15:48:56;16.50;99.90
12166;DHT22;6146;48.128;11.476;2023-05-19T15:51:22;16.70;99.90
12166;DHT22;6146;48.128;11.476;2023-05-19T15:53:48;16.70;99.90
12166;DHT22;6146;48.128;11.476;2023-05-19T15:56:14;16.60;99.90
12166;DHT22;6146;48.128;11.476;2023-05-19T15:58:39;16.50;99.90
12166;DHT22;6146;48.128;11.476;2023-05-19T16:01:06;16.70;99.90
12166;DHT22;6146;48.128;11.476;2023-05-19T16:03:31;16.80;99.90
12166;DHT22;6146;48.128;11.476;2023-05-19T16:05:57;16.90;99.90
12166;DHT22;6146;48.128;11.476;2023-05-19T16:08:23;16.90;99.90